Time;durP1;ratioP1;P1;durP2;ratioP2;P2;SDS_P1;SDS_P2;PMS_P1;PMS_P2;Temp;Humidity;BMP_temperature;BMP_pressure;BME280_temperature;BME280_humidity;BME280_pressure;Samples;Min_cycle;Max_cycle;Signal;HPM_P1;HPM_P2
2023/04/18 00:01:20;;;;;;;24.13;16.33;;;10.70;1.00;;;;;;5050598;28;20450;-54
2023/04/18 00:03:46;;;;;;;19.23;14.40;;;10.80;1.00;;;;;;5045538;28;20455;-53
2023/04/18 00:06:12;;;;;;;21.07;15.73;;;10.80;1.00;;;;;;5061286;28;21090;-55
2023/04/18 00:08:38;;;;;;;21.80;16.70;;;10.90;1.00;;;;;;5046970;28;20189;-56
2023/04/18 00:11:04;;;;;;;25.87;18.17;;;10.80;1.00;;;;;;5044904;28;20452;-54
2023/04/18 00:13:29;;;;;;;27.13;18.30;;;10.60;1.00;;;;;;5046862;28;20442;-55
2023/04/18 00:15:55;;;;;;;20.67;15.90;;;10.50;1.00;;;;;;5046382;28;20198;-54
2023/04/18 00:18:21;;;;;;;23.90;17.83;;;10.50;1.00;;;;;;5041683;28;20307;-54
2023/04/18 00:20:46;;;;;;;26.23;18.17;;;10.60;1.00;;;;;;5042983;28;20685;-55
2023/04/18 00:23:15;;;;;;;23.77;19.23;;;10.60;1.00;;;;;;5047490;28;20278;-54
2023/04/18 00:25:41;;;;;;;23.30;19.13;;;10.60;1.00;;;;;;5043854;28;20195;-54
2023/04/18 00:28:06;;;;;;;28.27;20.73;;;10.60;1.00;;;;;;5043151;28;21097;-55
2023/04/18 00:30:32;;;;;;;24.70;19.30;;;10.70;1.00;;;;;;5046190;28;20215;-54
2023/04/18 00:32:57;;;;;;;24.70;18.87;;;10.70;1.00;;;;;;5042704;28;20203;-54
2023/04/18 00:35:23;;;;;;;25.93;20.07;;;10.70;1.00;;;;;;5037182;28;20634;-54
2023/04/18 00:37:49;;;;;;;22.57;19.63;;;10.60;1.00;;;;;;5036930;28;20197;-54
2023/04/18 00:40:15;;;;;;;22.60;18.40;;;10.60;1.00;;;;;;5036904;28;20468;-54
2023/04/18 00:42:41;;;;;;;23.07;20.27;;;10.50;1.00;;;;;;5042264;28;20464;-54
2023/04/18 00:45:07;;;;;;;27.77;21.40;;;10.40;1.00;;;;;;5041616;28;20189;-54
2023/04/18 00:47:32;;;;;;;22.43;19.97;;;10.50;1.00;;;;;;5048401;28;20193;-55
2023/04/18 00:49:58;;;;;;;25.50;20.80;;;10.40;1.00;;;;;;5043195;28;20451;-53
2023/04/18 00:52:26;;;;;;;25.33;21.07;;;10.30;1.00;;;;;;5043029;28;20607;-54
2023/04/18 00:54:51;;;;;;;25.07;20.73;;;10.30;1.00;;;;;;5041199;28;20236;-54
2023/04/18 00:57:17;;;;;;;25.97;21.00;;;10.30;1.00;;;;;;5042841;28;20451;-56
2023/04/18 00:59:45;;;;;;;27.40;21.70;;;10.30;1.00;;;;;;5040744;28;20505;-55
2023/04/18 01:02:11;;;;;;;28.20;23.17;;;10.30;1.00;;;;;;5050572;28;20199;-56
2023/04/18 01:04:37;;;;;;;23.57;21.10;;;10.30;1.00;;;;;;5047192;28;20448;-54
2023/04/18 01:07:03;;;;;;;27.70;21.87;;;10.40;1.00;;;;;;5050538;28;20490;-55
2023/04/18 01:09:29;;;;;;;26.30;22.53;;;10.50;1.00;;;;;;5043484;28;20448;-55
2023/04/18 01:11:55;;;;;;;26.33;20.90;;;10.50;1.00;;;;;;5043626;28;20490;-55
2023/04/18 01:14:21;;;;;;;25.63;22.03;;;10.50;1.00;;;;;;5044023;28;20886;-53
2023/04/18 01:16:47;;;;;;;27.87;22.23;;;10.50;1.00;;;;;;5043361;28;20947;-54
2023/04/18 01:19:13;;;;;;;25.10;21.50;;;10.40;1.00;;;;;;5048530;28;20180;-54
2023/04/18 01:21:42;;;;;;;25.67;22.90;;;10.30;1.00;;;;;;5045759;28;20455;-55
2023/04/18 01:24:13;;;;;;;27.03;22.10;;;10.30;1.00;;;;;;5045505;28;20987;-54
2023/04/18 01:26:42;;;;;;;28.67;22.50;;;10.30;1.00;;;;;;5044681;28;20450;-54
2023/04/18 01:29:07;;;;;;;26.53;22.87;;;10.30;1.00;;;;;;5045834;28;20516;-53
2023/04/18 01:31:35;;;;;;;25.97;21.30;;;10.20;1.00;;;;;;5045438;28;20454;-54
2023/04/18 01:34:01;;;;;;;28.50;23.90;;;10.10;1.00;;;;;;5041782;28;20220;-54
2023/04/18 01:36:26;;;;;;;30.73;24.10;;;10.00;1.00;;;;;;5043914;28;20774;-53
2023/04/18 01:38:52;;;;;;;27.63;23.47;;;10.00;1.00;;;;;;5042553;28;20442;-53
2023/04/18 01:41:18;;;;;;;32.00;24.30;;;9.90;1.00;;;;;;5041971;28;20311;-53
2023/04/18 01:43:43;;;;;;;28.67;22.90;;;10.00;1.00;;;;;;5041725;28;20195;-56
2023/04/18 01:46:09;;;;;;;31.33;23.00;;;9.90;1.00;;;;;;5043913;28;20271;-55
2023/04/18 01:48:34;;;;;;;29.60;24.63;;;9.90;1.00;;;;;;5044563;28;20181;-56
2023/04/18 01:51:00;;;;;;;28.37;22.60;;;9.90;1.00;;;;;;5041893;28;20216;-54
2023/04/18 01:53:25;;;;;;;31.80;24.67;;;9.90;1.00;;;;;;5045214;28;20193;-52
2023/04/18 01:55:51;;;;;;;36.10;25.70;;;9.90;1.00;;;;;;5042569;28;20570;-55
2023/04/18 01:58:21;;;;;;;33.23;26.37;;;9.80;1.00;;;;;;5045704;28;20187;-54
2023/04/18 02:00:49;;;;;;;32.80;25.40;;;9.80;1.00;;;;;;5041507;28;20227;-56
2023/04/18 02:03:15;;;;;;;28.77;23.70;;;9.80;1.00;;;;;;5042202;28;20520;-53
2023/04/18 02:05:41;;;;;;;29.53;22.50;;;9.70;1.00;;;;;;5046081;28;20542;-54
2023/04/18 02:08:07;;;;;;;38.00;27.03;;;9.80;1.00;;;;;;5042729;28;20193;-54
2023/04/18 02:10:32;;;;;;;33.67;26.00;;;9.80;1.00;;;;;;5047712;28;20208;-54
2023/04/18 02:12:58;;;;;;;30.07;24.40;;;9.90;1.00;;;;;;5046157;28;20478;-53
2023/04/18 02:15:24;;;;;;;38.90;26.30;;;9.90;1.00;;;;;;5046918;28;20177;-53
2023/04/18 02:17:49;;;;;;;36.03;27.57;;;9.80;1.00;;;;;;5049274;28;20263;-53
2023/04/18 02:20:15;;;;;;;35.10;26.10;;;9.80;1.00;;;;;;5046643;28;20722;-54
2023/04/18 02:22:42;;;;;;;33.30;24.20;;;9.80;1.00;;;;;;5047813;28;20191;-55
2023/04/18 02:25:07;;;;;;;32.90;26.93;;;9.80;1.00;;;;;;5048311;28;20315;-53
2023/04/18 02:27:33;;;;;;;31.80;25.40;;;9.70;1.00;;;;;;5044147;28;20536;-52
2023/04/18 02:29:59;;;;;;;32.50;25.65;;;9.90;1.00;;;;;;5047875;28;20462;-54
2023/04/18 02:32:25;;;;;;;30.10;24.00;;;9.80;1.00;;;;;;5049298;28;20200;-53
2023/04/18 02:34:50;;;;;;;34.17;26.63;;;9.80;1.00;;;;;;5046498;28;20215;-55
2023/04/18 02:37:16;;;;;;;35.57;26.33;;;9.80;1.00;;;;;;5043631;28;20282;-55
2023/04/18 02:39:41;;;;;;;33.80;25.03;;;9.90;1.00;;;;;;5046714;28;20193;-55
2023/04/18 02:42:07;;;;;;;35.70;23.37;;;9.80;1.00;;;;;;5048738;28;20550;-54
2023/04/18 02:44:32;;;;;;;30.13;24.30;;;9.90;1.00;;;;;;5048671;28;21741;-53
2023/04/18 02:46:58;;;;;;;33.93;25.70;;;10.00;1.00;;;;;;5049344;28;20787;-54
2023/04/18 02:49:24;;;;;;;32.23;24.23;;;9.90;1.00;;;;;;5045718;28;20185;-56
2023/04/18 02:51:54;;;;;;;27.43;23.33;;;9.90;1.00;;;;;;5046937;28;20684;-54
2023/04/18 02:54:20;;;;;;;31.27;25.00;;;9.90;1.00;;;;;;5049042;28;20783;-54
2023/04/18 02:56:45;;;;;;;29.03;23.40;;;9.90;1.00;;;;;;5048692;28;20425;-54
2023/04/18 02:59:11;;;;;;;32.20;23.93;;;9.90;1.00;;;;;;5050801;28;20185;-53
2023/04/18 03:01:36;;;;;;;31.50;25.00;;;9.80;1.00;;;;;;5047824;28;20459;-55
2023/04/18 03:04:02;;;;;;;27.73;23.27;;;9.70;1.00;;;;;;5048633;28;20650;-54
2023/04/18 03:06:28;;;;;;;32.53;24.77;;;9.80;1.00;;;;;;5052753;28;20194;-54
2023/04/18 03:08:54;;;;;;;27.07;22.60;;;10.20;1.00;;;;;;5048589;28;20196;-54
2023/04/18 03:11:20;;;;;;;33.20;24.67;;;9.90;1.00;;;;;;5049810;28;20442;-53
2023/04/18 03:13:46;;;;;;;29.73;22.40;;;9.90;1.00;;;;;;5054591;28;20418;-54
2023/04/18 03:16:12;;;;;;;31.70;21.70;;;9.80;1.00;;;;;;5049712;28;20446;-54
2023/04/18 03:18:38;;;;;;;26.70;22.90;;;9.70;1.00;;;;;;5047695;28;20192;-53
2023/04/18 03:21:03;;;;;;;27.53;22.93;;;9.60;1.00;;;;;;5049668;28;20207;-53
2023/04/18 03:23:29;;;;;;;29.23;22.13;;;9.60;1.00;;;;;;5051621;28;20192;-55
2023/04/18 03:25:55;;;;;;;27.77;21.70;;;9.70;1.00;;;;;;5046590;28;20259;-55
2023/04/18 03:28:21;;;;;;;29.40;21.73;;;9.80;1.00;;;;;;5043488;28;20271;-54
2023/04/18 03:30:46;;;;;;;26.00;22.03;;;9.90;1.00;;;;;;5046757;28;20561;-54
2023/04/18 03:33:13;;;;;;;24.63;21.23;;;9.90;1.00;;;;;;5047618;28;20185;-54
2023/04/18 03:35:39;;;;;;;29.60;23.03;;;9.80;1.00;;;;;;5045990;28;20262;-56
2023/04/18 03:38:05;;;;;;;25.63;21.40;;;9.60;1.00;;;;;;5049157;28;20418;-54
2023/04/18 03:40:30;;;;;;;27.20;21.00;;;9.60;1.00;;;;;;5047184;28;20192;-56
2023/04/18 03:42:56;;;;;;;28.87;24.00;;;9.60;1.00;;;;;;5045673;28;20192;-53
2023/04/18 03:45:22;;;;;;;28.20;20.70;;;9.60;1.00;;;;;;5047810;28;20192;-55
2023/04/18 03:47:47;;;;;;;31.30;24.40;;;9.60;1.00;;;;;;5046111;28;20445;-54
2023/04/18 03:50:13;;;;;;;28.67;22.07;;;9.60;1.00;;;;;;5047593;28;20192;-54
2023/04/18 03:52:39;;;;;;;28.70;23.40;;;9.50;1.00;;;;;;5043777;28;20554;-54
2023/04/18 03:55:05;;;;;;;31.57;24.80;;;9.50;1.00;;;;;;5044990;28;20225;-54
2023/04/18 03:57:31;;;;;;;32.37;23.10;;;9.60;1.00;;;;;;5047057;28;20216;-53
2023/04/18 03:59:56;;;;;;;34.70;25.20;;;9.60;1.00;;;;;;5045739;28;20479;-54
2023/04/18 04:02:22;;;;;;;35.80;25.97;;;9.60;1.00;;;;;;5043961;28;20192;-53
2023/04/18 04:04:47;;;;;;;36.37;25.83;;;9.50;1.00;;;;;;5043606;28;20523;-54
2023/04/18 04:07:13;;;;;;;33.70;24.37;;;9.50;1.00;;;;;;5046033;28;20188;-55
2023/04/18 04:09:39;;;;;;;34.47;26.27;;;9.50;1.00;;;;;;5049797;28;20202;-55
2023/04/18 04:12:04;;;;;;;30.80;23.97;;;9.50;1.00;;;;;;5046027;28;20223;-54
2023/04/18 04:14:31;;;;;;;30.90;23.20;;;9.50;1.00;;;;;;5046319;28;20219;-54
2023/04/18 04:16:56;;;;;;;34.60;23.23;;;9.40;1.00;;;;;;5039462;28;20200;-54
2023/04/18 04:19:22;;;;;;;33.80;25.27;;;9.20;1.00;;;;;;5044531;28;20483;-54
2023/04/18 04:21:48;;;;;;;35.03;24.70;;;9.10;1.00;;;;;;5042708;28;20219;-55
2023/04/18 04:24:13;;;;;;;37.50;26.13;;;9.10;1.00;;;;;;5047385;28;20216;-53
2023/04/18 04:26:41;;;;;;;37.30;25.07;;;9.30;1.00;;;;;;5047659;28;20211;-53
2023/04/18 04:29:08;;;;;;;36.50;26.90;;;9.20;1.00;;;;;;5045252;28;20197;-53
2023/04/18 04:31:34;;;;;;;36.83;25.50;;;9.20;1.00;;;;;;5048143;28;21043;-54
2023/04/18 04:34:00;;;;;;;31.80;22.90;;;9.30;1.00;;;;;;5046280;28;20516;-55
2023/04/18 04:36:26;;;;;;;31.93;24.17;;;9.20;1.00;;;;;;5045988;28;21611;-55
2023/04/18 04:38:52;;;;;;;33.80;23.73;;;9.20;1.00;;;;;;5046843;28;20447;-54
2023/04/18 04:41:17;;;;;;;35.23;24.10;;;9.10;1.00;;;;;;5044546;28;20447;-55
2023/04/18 04:43:45;;;;;;;37.53;24.30;;;9.10;1.00;;;;;;5046583;28;20200;-54
2023/04/18 04:46:13;;;;;;;33.70;22.20;;;9.10;1.00;;;;;;5044480;28;20199;-55
2023/04/18 04:48:39;;;;;;;34.27;23.50;;;9.10;1.00;;;;;;5046794;28;20449;-54
2023/04/18 04:51:04;;;;;;;35.03;24.57;;;8.90;1.00;;;;;;5044305;28;20467;-54
2023/04/18 04:53:30;;;;;;;32.63;24.60;;;8.90;1.00;;;;;;5047331;28;20185;-55
2023/04/18 04:55:57;;;;;;;36.13;23.70;;;8.90;1.00;;;;;;5044366;28;20239;-55
2023/04/18 04:58:22;;;;;;;31.17;23.00;;;8.90;1.00;;;;;;5045254;28;20184;-54
2023/04/18 05:00:51;;;;;;;32.87;22.20;;;9.00;1.00;;;;;;5043582;28;20523;-54
2023/04/18 05:03:17;;;;;;;30.97;23.17;;;8.80;1.00;;;;;;5042662;28;20655;-54
2023/04/18 05:05:42;;;;;;;34.23;22.57;;;8.90;1.00;;;;;;5042404;28;20417;-54
2023/04/18 05:08:08;;;;;;;38.87;24.50;;;8.90;1.00;;;;;;5046460;28;20978;-55
2023/04/18 05:10:35;;;;;;;34.90;24.20;;;9.00;1.00;;;;;;5046417;28;20200;-55
2023/04/18 05:13:02;;;;;;;33.67;23.60;;;9.00;1.00;;;;;;5044824;28;20173;-54
2023/04/18 05:15:28;;;;;;;34.87;23.90;;;9.00;1.00;;;;;;5045609;28;20445;-55
2023/04/18 05:17:54;;;;;;;34.10;22.70;;;8.80;1.00;;;;;;5042254;28;20446;-57
2023/04/18 05:20:19;;;;;;;34.53;22.40;;;8.90;1.00;;;;;;5041142;28;20458;-55
2023/04/18 05:22:45;;;;;;;33.70;24.37;;;9.50;1.00;;;;;;5044838;28;20799;-54
2023/04/18 05:25:11;;;;;;;29.83;21.30;;;9.00;1.00;;;;;;5039614;28;20334;-54
2023/04/18 05:27:37;;;;;;;35.37;24.40;;;8.90;1.00;;;;;;5041655;28;20197;-55
2023/04/18 05:30:03;;;;;;;26.93;20.50;;;9.00;1.00;;;;;;5042499;28;20443;-56
2023/04/18 05:32:29;;;;;;;29.40;20.90;;;8.90;1.00;;;;;;5042758;28;20485;-55
2023/04/18 05:34:54;;;;;;;31.37;22.50;;;8.80;1.00;;;;;;5044526;28;20450;-55
2023/04/18 05:37:21;;;;;;;30.87;20.90;;;8.80;1.00;;;;;;5043480;28;20188;-54
2023/04/18 05:39:46;;;;;;;38.10;25.97;;;8.80;1.00;;;;;;5042488;28;20193;-56
2023/04/18 05:42:12;;;;;;;32.80;22.53;;;8.70;1.00;;;;;;5048392;28;20780;-53
2023/04/18 05:44:38;;;;;;;34.53;22.07;;;8.80;1.00;;;;;;5039840;28;20204;-54
2023/04/18 05:47:06;;;;;;;30.33;22.93;;;8.80;1.00;;;;;;5044388;28;20192;-54
2023/04/18 05:49:32;;;;;;;42.00;29.37;;;8.90;1.00;;;;;;5042488;28;20225;-52
2023/04/18 05:51:58;;;;;;;32.30;24.20;;;9.00;1.00;;;;;;5042310;28;20936;-54
2023/04/18 05:54:26;;;;;;;33.97;23.97;;;9.00;1.00;;;;;;5047220;28;20230;-55
2023/04/18 05:56:52;;;;;;;30.37;21.50;;;9.00;1.00;;;;;;5042709;28;20188;-54
2023/04/18 05:59:19;;;;;;;27.70;20.40;;;9.10;1.00;;;;;;5045740;28;20473;-55
2023/04/18 06:01:45;;;;;;;29.10;21.57;;;9.10;1.00;;;;;;5044276;28;20443;-55
2023/04/18 06:04:11;;;;;;;25.93;18.37;;;9.00;1.00;;;;;;5047018;28;20474;-55
2023/04/18 06:06:37;;;;;;;27.57;18.23;;;9.10;1.00;;;;;;5039086;28;20980;-55
2023/04/18 06:09:02;;;;;;;30.97;20.70;;;9.10;1.00;;;;;;5045358;28;20184;-56
2023/04/18 06:11:28;;;;;;;23.63;17.90;;;9.20;1.00;;;;;;5039883;28;20211;-56
2023/04/18 06:13:54;;;;;;;26.87;18.70;;;9.30;1.00;;;;;;5042796;28;20275;-55
2023/04/18 06:16:21;;;;;;;31.30;19.70;;;9.20;1.00;;;;;;5039720;28;20674;-55
2023/04/18 06:18:47;;;;;;;28.00;20.70;;;9.10;1.00;;;;;;5043257;28;20935;-55
2023/04/18 06:21:13;;;;;;;26.03;18.50;;;9.00;1.00;;;;;;5043166;28;20449;-55
2023/04/18 06:23:38;;;;;;;27.47;21.80;;;9.00;1.00;;;;;;5046661;28;20193;-56
2023/04/18 06:26:06;;;;;;;27.23;19.03;;;9.00;1.00;;;;;;5041695;28;20451;-56
2023/04/18 06:28:31;;;;;;;27.43;19.43;;;9.00;1.00;;;;;;5034664;28;20196;-55
2023/04/18 06:30:57;;;;;;;28.83;19.27;;;9.20;1.00;;;;;;5044409;28;21026;-56
2023/04/18 06:33:23;;;;;;;30.33;22.43;;;9.20;1.00;;;;;;5043870;28;20525;-55
2023/04/18 06:35:48;;;;;;;27.43;19.30;;;9.30;1.00;;;;;;5045094;28;20252;-56
2023/04/18 06:38:14;;;;;;;28.80;20.10;;;9.30;1.00;;;;;;5042249;28;20192;-55
2023/04/18 06:40:40;;;;;;;31.73;20.97;;;9.30;1.00;;;;;;5045916;28;20243;-56
2023/04/18 06:43:05;;;;;;;27.00;20.60;;;9.30;1.00;;;;;;5045100;28;20196;-56
2023/04/18 06:45:31;;;;;;;30.80;21.20;;;9.20;1.00;;;;;;5042312;28;20195;-55
2023/04/18 06:47:58;;;;;;;30.27;20.37;;;9.20;1.00;;;;;;5042451;28;20192;-54
2023/04/18 06:50:25;;;;;;;28.83;21.50;;;9.20;1.00;;;;;;5045266;28;20525;-56
2023/04/18 06:52:51;;;;;;;29.17;21.70;;;9.50;1.00;;;;;;5044472;28;20451;-55
2023/04/18 06:55:16;;;;;;;31.07;20.87;;;9.50;1.00;;;;;;5043981;28;20554;-55
2023/04/18 06:57:42;;;;;;;26.77;19.93;;;9.50;1.00;;;;;;5039080;28;20196;-54
2023/04/18 07:00:09;;;;;;;27.63;21.30;;;9.60;1.00;;;;;;5054251;28;20711;-55
2023/04/18 07:02:37;;;;;;;25.90;20.33;;;9.50;1.00;;;;;;5042677;28;20740;-55
2023/04/18 07:05:03;;;;;;;24.73;18.70;;;9.50;1.00;;;;;;5050272;28;20450;-55
2023/04/18 07:07:29;;;;;;;30.00;21.20;;;9.40;1.00;;;;;;5049497;28;20452;-56
2023/04/18 07:09:55;;;;;;;27.93;19.70;;;9.40;1.00;;;;;;5049021;28;20446;-55
2023/04/18 07:12:20;;;;;;;28.47;21.43;;;9.40;1.00;;;;;;5047775;28;20569;-55
2023/04/18 07:14:46;;;;;;;33.27;21.83;;;9.50;1.00;;;;;;5045561;28;20192;-56
2023/04/18 07:17:12;;;;;;;31.57;19.27;;;9.40;1.00;;;;;;5052448;28;20198;-55
2023/04/18 07:19:37;;;;;;;29.47;21.13;;;9.70;1.00;;;;;;5048437;28;20181;-55
2023/04/18 07:22:03;;;;;;;27.20;20.77;;;9.60;1.00;;;;;;5044748;28;20676;-56
2023/04/18 07:24:29;;;;;;;27.23;19.80;;;9.80;1.00;;;;;;5050558;28;20215;-56
2023/04/18 07:26:54;;;;;;;32.40;20.87;;;9.90;1.00;;;;;;5045889;28;20255;-55
2023/04/18 07:29:20;;;;;;;27.83;20.87;;;9.90;1.00;;;;;;5045646;28;20245;-55
2023/04/18 07:31:47;;;;;;;27.17;20.47;;;9.80;1.00;;;;;;5043005;28;20299;-55
2023/04/18 07:34:12;;;;;;;26.00;20.03;;;9.70;1.00;;;;;;5045459;28;20237;-56
2023/04/18 07:36:38;;;;;;;29.97;20.43;;;9.70;1.00;;;;;;5045265;28;20443;-55
2023/04/18 07:39:04;;;;;;;26.37;20.80;;;9.50;1.00;;;;;;5044158;28;20196;-55
2023/04/18 07:41:30;;;;;;;22.90;18.47;;;9.70;1.00;;;;;;5047052;28;20443;-56
2023/04/18 07:43:56;;;;;;;32.40;21.60;;;9.80;1.00;;;;;;5047948;28;20275;-57
2023/04/18 07:46:21;;;;;;;27.90;18.50;;;9.90;1.00;;;;;;5045017;28;20516;-56
2023/04/18 07:48:47;;;;;;;29.57;19.90;;;9.80;1.00;;;;;;5050100;28;20196;-56
2023/04/18 07:51:13;;;;;;;25.37;19.90;;;9.80;1.00;;;;;;5043808;28;20582;-56
2023/04/18 07:53:39;;;;;;;27.10;20.83;;;9.80;1.00;;;;;;5052346;28;20212;-56
2023/04/18 07:56:05;;;;;;;25.03;17.57;;;9.90;1.00;;;;;;5047754;28;20224;-56
2023/04/18 07:58:33;;;;;;;26.53;19.80;;;10.10;1.00;;;;;;5046870;28;20966;-56
2023/04/18 08:00:59;;;;;;;25.47;19.77;;;10.10;1.00;;;;;;5045737;28;20457;-55
2023/04/18 08:03:26;;;;;;;25.43;18.33;;;10.10;1.00;;;;;;5048890;28;20524;-55
2023/04/18 08:05:52;;;;;;;22.67;17.37;;;10.10;1.00;;;;;;5047691;28;20443;-54
2023/04/18 08:08:18;;;;;;;28.50;19.20;;;10.00;1.00;;;;;;5044134;28;20455;-57
2023/04/18 08:10:43;;;;;;;31.73;21.93;;;10.00;1.00;;;;;;5044780;28;20482;-55
2023/04/18 08:13:11;;;;;;;36.43;27.00;;;9.90;1.00;;;;;;5045717;28;20487;-55
2023/04/18 08:15:38;;;;;;;33.60;27.07;;;10.00;1.00;;;;;;5046860;28;20661;-56
2023/04/18 08:18:03;;;;;;;30.53;22.27;;;10.20;1.00;;;;;;5045562;28;20417;-56
2023/04/18 08:20:29;;;;;;;28.90;20.57;;;10.20;1.00;;;;;;5043594;28;20445;-56
2023/04/18 08:22:55;;;;;;;24.87;19.70;;;10.30;1.00;;;;;;5043267;28;20196;-55
2023/04/18 08:25:20;;;;;;;24.43;19.80;;;10.20;1.00;;;;;;5049242;28;20566;-55
2023/04/18 08:27:46;;;;;;;22.30;18.37;;;10.30;1.00;;;;;;5044682;28;20188;-55
2023/04/18 08:30:12;;;;;;;23.30;17.13;;;10.30;1.00;;;;;;5047731;28;20212;-55
2023/04/18 08:32:38;;;;;;;25.03;17.30;;;10.30;1.00;;;;;;5046902;28;20227;-57
2023/04/18 08:35:04;;;;;;;22.70;18.03;;;10.30;1.00;;;;;;5048049;28;20455;-56
2023/04/18 08:37:34;;;;;;;25.70;18.00;;;10.40;1.00;;;;;;5046543;28;20241;-56
2023/04/18 08:40:00;;;;;;;23.97;17.70;;;10.60;1.00;;;;;;5049547;28;20882;-56
2023/04/18 08:42:26;;;;;;;22.83;16.63;;;10.80;1.00;;;;;;5043057;28;20414;-56
2023/04/18 08:44:52;;;;;;;21.00;16.03;;;11.00;1.00;;;;;;5049560;28;22315;-57
2023/04/18 08:47:19;;;;;;;21.43;16.77;;;10.80;1.00;;;;;;5046753;28;20451;-56
2023/04/18 08:49:45;;;;;;;25.60;18.40;;;10.90;1.00;;;;;;5050574;28;20439;-56
2023/04/18 08:52:15;;;;;;;25.00;17.50;;;10.70;1.00;;;;;;5042116;28;20533;-56
2023/04/18 08:54:43;;;;;;;24.40;15.93;;;10.60;1.00;;;;;;5040503;28;20663;-57
2023/04/18 08:57:11;;;;;;;25.77;16.90;;;10.60;1.00;;;;;;5043573;28;20505;-56
2023/04/18 08:59:37;;;;;;;21.20;15.83;;;10.80;1.00;;;;;;5043984;28;20787;-56
2023/04/18 09:02:05;;;;;;;23.33;16.90;;;11.00;1.00;;;;;;5044919;28;20987;-56
2023/04/18 09:04:33;;;;;;;22.27;16.93;;;11.10;1.00;;;;;;5046722;28;20454;-56
2023/04/18 09:06:59;;;;;;;22.60;17.17;;;11.10;1.00;;;;;;5044206;28;20459;-56
2023/04/18 09:09:26;;;;;;;25.33;19.47;;;11.20;1.00;;;;;;5045814;28;20929;-56
2023/04/18 09:12:07;;;;;;;23.73;16.20;;;12.80;1.00;;;;;;5046129;28;20578;-56
2023/04/18 09:14:41;;;;;;;24.77;18.43;;;11.70;1.00;;;;;;5042249;28;20458;-57
2023/04/18 09:17:08;;;;;;;26.10;18.77;;;11.80;1.00;;;;;;5041684;28;20797;-57
2023/04/18 09:19:33;;;;;;;25.00;16.53;;;11.70;1.00;;;;;;5044783;28;20853;-56
2023/04/18 09:22:01;;;;;;;30.87;19.50;;;11.70;1.00;;;;;;5044720;28;20489;-55
2023/04/18 09:24:27;;;;;;;27.20;18.60;;;11.60;1.00;;;;;;5041715;28;20220;-56
2023/04/18 09:26:55;;;;;;;27.27;17.67;;;11.40;1.00;;;;;;5036977;28;20463;-55
2023/04/18 09:29:25;;;;;;;27.63;20.10;;;11.10;1.00;;;;;;5042679;28;20454;-55
2023/04/18 09:31:59;;;;;;;25.47;17.00;;;10.70;1.00;;;;;;5044537;28;20433;-54
2023/04/18 09:34:26;;;;;;;26.00;18.57;;;10.70;1.00;;;;;;5043656;28;20435;-55
2023/04/18 09:37:12;;;;;;;28.73;20.20;;;10.60;1.00;;;;;;5044446;28;20422;-56
2023/04/18 09:39:39;;;;;;;31.80;21.37;;;10.70;1.00;;;;;;5042612;28;20418;-56
2023/04/18 09:42:05;;;;;;;34.70;24.20;;;10.80;1.00;;;;;;5045401;28;20990;-56
2023/04/18 09:44:31;;;;;;;27.97;20.30;;;10.90;1.00;;;;;;5045216;28;20474;-57
2023/04/18 09:46:56;;;;;;;29.77;20.73;;;10.90;1.00;;;;;;5047521;28;20520;-56
2023/04/18 09:49:22;;;;;;;28.37;20.87;;;10.80;1.00;;;;;;5047110;28;20785;-56
2023/04/18 09:51:50;;;;;;;33.10;24.10;;;10.70;1.00;;;;;;5046993;28;20270;-57
2023/04/18 09:54:17;;;;;;;40.47;25.00;;;10.80;1.00;;;;;;5047052;28;20554;-55
2023/04/18 09:56:44;;;;;;;33.30;23.10;;;10.70;1.00;;;;;;5046589;28;20919;-57
2023/04/18 09:59:10;;;;;;;28.17;21.60;;;10.50;1.00;;;;;;5045887;28;20417;-56
2023/04/18 10:01:38;;;;;;;28.40;23.00;;;10.40;1.00;;;;;;5046564;28;20450;-57
2023/04/18 10:04:07;;;;;;;29.23;21.63;;;10.40;1.00;;;;;;5047432;28;20928;-55
2023/04/18 10:06:38;;;;;;;27.43;21.20;;;10.40;1.00;;;;;;5047234;28;20794;-55
2023/04/18 10:09:04;;;;;;;28.57;21.93;;;10.40;1.00;;;;;;5045717;28;20448;-56
2023/04/18 10:11:31;;;;;;;24.63;21.70;;;10.40;1.00;;;;;;5046923;28;20446;-56
2023/04/18 10:14:01;;;;;;;28.20;21.07;;;10.40;1.00;;;;;;5044056;28;20447;-57
2023/04/18 10:16:28;;;;;;;24.10;19.60;;;10.50;1.00;;;;;;5048018;28;20425;-56
2023/04/18 10:18:54;;;;;;;28.07;22.47;;;10.40;1.00;;;;;;5045251;28;20449;-56
2023/04/18 10:21:20;;;;;;;28.37;22.30;;;10.40;1.00;;;;;;5044220;28;20417;-55
2023/04/18 10:23:47;;;;;;;24.87;21.60;;;10.50;1.00;;;;;;5046185;28;20188;-55
2023/04/18 10:26:13;;;;;;;24.67;20.00;;;10.60;1.00;;;;;;5046490;28;20433;-56
2023/04/18 10:28:55;;;;;;;28.60;22.10;;;10.80;1.00;;;;;;5046484;28;20458;-56
2023/04/18 10:31:25;;;;;;;25.27;20.73;;;10.90;1.00;;;;;;5048308;28;20441;-56
2023/04/18 10:33:55;;;;;;;29.23;23.10;;;11.20;1.00;;;;;;5050059;28;21115;-55
2023/04/18 10:36:21;;;;;;;26.07;20.37;;;11.30;1.00;;;;;;5051088;28;20417;-57
2023/04/18 10:38:53;;;;;;;20.67;18.47;;;11.40;1.00;;;;;;5048858;28;20450;-57
2023/04/18 10:41:21;;;;;;;23.37;20.57;;;11.50;1.00;;;;;;5046433;28;20641;-55
2023/04/18 10:44:08;;;;;;;23.30;19.10;;;11.30;1.00;;;;;;5049926;28;20470;-56
2023/04/18 10:46:34;;;;;;;24.13;20.90;;;11.00;1.00;;;;;;5051015;28;20458;-57
2023/04/18 10:49:23;;;;;;;23.80;21.20;;;11.00;1.00;;;;;;5048872;28;20902;-56
2023/04/18 10:51:54;;;;;;;27.33;22.93;;;11.20;1.00;;;;;;5050019;28;20498;-56
2023/04/18 10:54:53;;;;;;;27.13;21.47;;;11.30;1.00;;;;;;5049323;28;20558;-56
2023/04/18 10:57:19;;;;;;;26.20;19.70;;;11.20;1.00;;;;;;5049733;28;20454;-55
2023/04/18 10:59:49;;;;;;;28.50;21.33;;;10.90;1.00;;;;;;5049424;28;20434;-54
2023/04/18 11:02:29;;;;;;;30.60;21.10;;;10.80;1.00;;;;;;5050444;28;20192;-57
2023/04/18 11:04:56;;;;;;;32.03;23.50;;;10.80;1.00;;;;;;5050208;28;20987;-56
2023/04/18 11:07:47;;;;;;;31.90;23.83;;;10.80;1.00;;;;;;5048508;28;20442;-55
2023/04/18 11:10:17;;;;;;;27.57;22.13;;;10.80;1.00;;;;;;5049539;28;20451;-57
2023/04/18 11:12:43;;;;;;;32.03;21.93;;;10.80;1.00;;;;;;5046093;28;20797;-56
2023/04/18 11:15:16;;;;;;;25.27;19.73;;;10.80;1.00;;;;;;5049712;28;20453;-56
2023/04/18 11:17:42;;;;;;;26.57;20.07;;;10.70;1.00;;;;;;5050217;28;20215;-55
2023/04/18 11:20:13;;;;;;;26.50;20.50;;;10.60;1.00;;;;;;5048800;28;20424;-57
2023/04/18 11:23:14;;;;;;;27.43;20.93;;;10.60;1.00;;;;;;5048170;28;20500;-57
2023/04/18 11:25:43;;;;;;;27.47;22.00;;;10.80;1.00;;;;;;5045430;28;20447;-55
2023/04/18 11:28:12;;;;;;;30.03;22.90;;;10.80;1.00;;;;;;5048360;28;20439;-55
2023/04/18 11:30:39;;;;;;;25.70;19.27;;;10.80;1.00;;;;;;5050490;28;21250;-55
2023/04/18 11:33:09;;;;;;;23.73;20.00;;;10.80;1.00;;;;;;5049858;28;20932;-56
2023/04/18 11:35:43;;;;;;;26.70;21.73;;;11.00;1.00;;;;;;5049468;28;21009;-56
2023/04/18 11:38:11;;;;;;;26.40;20.07;;;10.90;1.00;;;;;;5048285;28;20866;-57
2023/04/18 11:40:37;;;;;;;27.47;21.77;;;11.00;1.00;;;;;;5050030;28;20445;-56
2023/04/18 11:43:04;;;;;;;28.10;20.47;;;11.10;1.00;;;;;;5049166;28;20409;-57
2023/04/18 11:45:30;;;;;;;24.17;19.83;;;11.20;1.00;;;;;;5043047;28;20181;-56
2023/04/18 11:47:57;;;;;;;26.83;19.83;;;11.20;1.00;;;;;;5046018;28;20789;-56
2023/04/18 11:50:24;;;;;;;26.37;21.07;;;11.30;1.00;;;;;;5040692;28;20189;-56
2023/04/18 11:52:52;;;;;;;24.77;19.37;;;11.40;1.00;;;;;;5045867;28;20449;-56
2023/04/18 11:55:20;;;;;;;24.63;19.80;;;11.40;1.00;;;;;;5047750;28;20453;-55
2023/04/18 11:58:05;;;;;;;25.00;20.63;;;11.40;1.00;;;;;;5048510;28;20808;-56
2023/04/18 12:00:32;;;;;;;24.63;19.50;;;11.20;1.00;;;;;;5048726;28;20442;-56
2023/04/18 12:02:58;;;;;;;25.70;21.47;;;11.20;1.00;;;;;;5041745;28;20923;-57
2023/04/18 12:05:44;;;;;;;27.93;20.77;;;11.10;1.00;;;;;;5038936;28;20418;-56
2023/04/18 12:08:18;;;;;;;24.73;20.27;;;11.20;1.00;;;;;;5046567;28;20792;-55
2023/04/18 12:10:51;;;;;;;23.97;17.90;;;11.30;1.00;;;;;;5047355;28;20513;-57
2023/04/18 12:13:18;;;;;;;26.20;21.43;;;11.20;1.00;;;;;;5048881;28;20454;-56
2023/04/18 12:15:45;;;;;;;24.97;21.37;;;11.00;1.00;;;;;;5046948;28;20420;-57
2023/04/18 12:18:14;;;;;;;24.33;20.10;;;10.90;1.00;;;;;;5043705;28;20943;-55
2023/04/18 12:20:49;;;;;;;27.83;21.47;;;10.80;1.00;;;;;;5043882;28;20459;-57
2023/04/18 12:23:52;;;;;;;26.93;20.80;;;10.80;1.00;;;;;;5038370;28;20420;-58
2023/04/18 12:26:19;;;;;;;31.17;22.80;;;10.80;1.00;;;;;;5025445;28;20608;-57
2023/04/18 12:28:45;;;;;;;26.50;21.10;;;10.90;1.00;;;;;;5023232;28;20586;-58
2023/04/18 12:31:11;;;;;;;31.07;24.13;;;10.90;1.00;;;;;;5036028;28;20471;-56
2023/04/18 12:33:37;;;;;;;29.33;22.07;;;10.90;1.00;;;;;;5049962;28;20462;-56
2023/04/18 12:36:04;;;;;;;25.67;20.47;;;10.70;1.00;;;;;;5045519;28;20939;-56
2023/04/18 12:38:30;;;;;;;29.00;21.63;;;10.70;1.00;;;;;;5051891;28;20203;-57
2023/04/18 12:40:55;;;;;;;24.60;21.03;;;10.60;1.00;;;;;;5043193;28;20447;-56